sensor_id;sensor_type;location;lat;lon;timestamp;temperature;humidity
11666;DHT22;5889;51.350;6.708;2024-03-25T00:00:09;6.10;99.90
11666;DHT22;5889;51.350;6.708;2024-03-25T00:02:37;6.10;99.90
11666;DHT22;5889;51.350;6.708;2024-03-25T00:05:03;6.00;99.90
11666;DHT22;5889;51.350;6.708;2024-03-25T00:07:30;6.00;99.90
11666;DHT22;5889;51.350;6.708;2024-03-25T00:09:58;5.90;99.90
11666;DHT22;5889;51.350;6.708;2024-03-25T00:12:25;5.80;99.90
11666;DHT22;5889;51.350;6.708;2024-03-25T00:14:51;5.80;99.90
11666;DHT22;5889;51.350;6.708;2024-03-25T00:17:18;5.80;99.90
11666;DHT22;5889;51.350;6.708;2024-03-25T00:19:45;5.80;99.90
11666;DHT22;5889;51.350;6.708;2024-03-25T00:22:16;5.80;99.90
11666;DHT22;5889;51.350;6.708;2024-03-25T00:24:42;5.80;99.90
11666;DHT22;5889;51.350;6.708;2024-03-25T00:27:10;5.90;99.90
11666;DHT22;5889;51.350;6.708;2024-03-25T00:29:35;5.90;99.90
11666;DHT22;5889;51.350;6.708;2024-03-25T00:32:03;5.90;99.90
11666;DHT22;5889;51.350;6.708;2024-03-25T00:34:29;5.90;99.90
11666;DHT22;5889;51.350;6.708;2024-03-25T00:36:59;5.90;99.90
11666;DHT22;5889;51.350;6.708;2024-03-25T00:39:25;5.90;99.90
11666;DHT22;5889;51.350;6.708;2024-03-25T00:41:52;5.90;99.90
11666;DHT22;5889;51.350;6.708;2024-03-25T00:44:19;5.80;99.90
11666;DHT22;5889;51.350;6.708;2024-03-25T00:46:46;5.80;99.90
11666;DHT22;5889;51.350;6.708;2024-03-25T00:49:12;5.80;99.90
11666;DHT22;5889;51.350;6.708;2024-03-25T00:51:39;5.70;99.90
11666;DHT22;5889;51.350;6.708;2024-03-25T00:54:05;5.70;99.90
11666;DHT22;5889;51.350;6.708;2024-03-25T00:56:32;5.70;99.90
11666;DHT22;5889;51.350;6.708;2024-03-25T00:58:57;5.70;99.90
11666;DHT22;5889;51.350;6.708;2024-03-25T01:01:29;5.70;99.90
11666;DHT22;5889;51.350;6.708;2024-03-25T01:03:55;5.70;99.90
11666;DHT22;5889;51.350;6.708;2024-03-25T01:06:22;5.60;99.90
11666;DHT22;5889;51.350;6.708;2024-03-25T01:08:48;5.60;99.90
11666;DHT22;5889;51.350;6.708;2024-03-25T01:11:14;5.60;99.90
11666;DHT22;5889;51.350;6.708;2024-03-25T01:13:40;5.60;99.90
11666;DHT22;5889;51.350;6.708;2024-03-25T01:16:08;5.60;99.90
11666;DHT22;5889;51.350;6.708;2024-03-25T01:18:35;5.50;99.90
11666;DHT22;5889;51.350;6.708;2024-03-25T01:21:02;5.50;99.90
11666;DHT22;5889;51.350;6.708;2024-03-25T01:23:28;5.50;99.90
11666;DHT22;5889;51.350;6.708;2024-03-25T01:25:54;5.50;99.90
11666;DHT22;5889;51.350;6.708;2024-03-25T01:28:20;5.50;99.90
11666;DHT22;5889;51.350;6.708;2024-03-25T01:30:48;5.40;99.90
11666;DHT22;5889;51.350;6.708;2024-03-25T01:33:14;5.40;99.90
11666;DHT22;5889;51.350;6.708;2024-03-25T01:35:42;5.40;99.90
11666;DHT22;5889;51.350;6.708;2024-03-25T01:38:07;5.40;99.90
11666;DHT22;5889;51.350;6.708;2024-03-25T01:40:34;5.40;99.90
11666;DHT22;5889;51.350;6.708;2024-03-25T01:43:01;5.40;99.90
11666;DHT22;5889;51.350;6.708;2024-03-25T01:45:30;5.30;99.90
11666;DHT22;5889;51.350;6.708;2024-03-25T01:47:56;5.30;99.90
11666;DHT22;5889;51.350;6.708;2024-03-25T01:50:24;5.30;99.90
11666;DHT22;5889;51.350;6.708;2024-03-25T01:52:53;5.20;99.90
11666;DHT22;5889;51.350;6.708;2024-03-25T01:55:21;5.30;99.90
11666;DHT22;5889;51.350;6.708;2024-03-25T01:57:48;5.20;99.90
11666;DHT22;5889;51.350;6.708;2024-03-25T02:00:15;5.20;99.90
11666;DHT22;5889;51.350;6.708;2024-03-25T02:02:42;5.20;99.90
11666;DHT22;5889;51.350;6.708;2024-03-25T02:05:10;5.20;99.90
11666;DHT22;5889;51.350;6.708;2024-03-25T02:07:36;5.20;99.90
11666;DHT22;5889;51.350;6.708;2024-03-25T02:10:07;5.10;99.90
11666;DHT22;5889;51.350;6.708;2024-03-25T02:12:36;5.10;99.90
11666;DHT22;5889;51.350;6.708;2024-03-25T02:15:04;5.10;99.90
11666;DHT22;5889;51.350;6.708;2024-03-25T02:17:30;5.00;99.90
11666;DHT22;5889;51.350;6.708;2024-03-25T02:19:57;5.00;99.90
11666;DHT22;5889;51.350;6.708;2024-03-25T02:22:23;5.00;99.90
11666;DHT22;5889;51.350;6.708;2024-03-25T02:24:52;5.00;99.90
11666;DHT22;5889;51.350;6.708;2024-03-25T02:27:19;4.90;99.90
11666;DHT22;5889;51.350;6.708;2024-03-25T02:29:46;4.90;99.90
11666;DHT22;5889;51.350;6.708;2024-03-25T02:32:12;4.90;99.90
11666;DHT22;5889;51.350;6.708;2024-03-25T02:34:39;4.90;99.90
11666;DHT22;5889;51.350;6.708;2024-03-25T02:37:06;4.90;99.90
11666;DHT22;5889;51.350;6.708;2024-03-25T02:39:34;4.80;99.90
11666;DHT22;5889;51.350;6.708;2024-03-25T02:42:00;4.80;99.90
11666;DHT22;5889;51.350;6.708;2024-03-25T02:44:28;4.80;99.90
11666;DHT22;5889;51.350;6.708;2024-03-25T02:46:54;4.80;99.90
11666;DHT22;5889;51.350;6.708;2024-03-25T02:49:21;4.80;99.90
11666;DHT22;5889;51.350;6.708;2024-03-25T02:51:46;4.80;99.90
11666;DHT22;5889;51.350;6.708;2024-03-25T02:54:13;4.80;99.90
11666;DHT22;5889;51.350;6.708;2024-03-25T02:56:39;4.80;99.90
11666;DHT22;5889;51.350;6.708;2024-03-25T02:59:06;4.70;99.90
11666;DHT22;5889;51.350;6.708;2024-03-25T03:01:34;4.70;99.90
11666;DHT22;5889;51.350;6.708;2024-03-25T03:04:00;4.70;99.90
11666;DHT22;5889;51.350;6.708;2024-03-25T03:06:26;4.70;99.90
11666;DHT22;5889;51.350;6.708;2024-03-25T03:08:53;4.70;99.90
11666;DHT22;5889;51.350;6.708;2024-03-25T03:11:18;4.70;99.90
11666;DHT22;5889;51.350;6.708;2024-03-25T03:13:45;4.70;99.90
11666;DHT22;5889;51.350;6.708;2024-03-25T03:16:11;4.70;99.90
11666;DHT22;5889;51.350;6.708;2024-03-25T03:18:39;4.70;99.90
11666;DHT22;5889;51.350;6.708;2024-03-25T03:21:05;4.70;99.90
11666;DHT22;5889;51.350;6.708;2024-03-25T03:23:32;4.70;99.90
11666;DHT22;5889;51.350;6.708;2024-03-25T03:25:58;4.70;99.90
11666;DHT22;5889;51.350;6.708;2024-03-25T03:28:26;4.70;99.90
11666;DHT22;5889;51.350;6.708;2024-03-25T03:30:53;4.80;99.90
11666;DHT22;5889;51.350;6.708;2024-03-25T03:33:20;4.80;99.90
11666;DHT22;5889;51.350;6.708;2024-03-25T03:35:48;4.80;99.90
11666;DHT22;5889;51.350;6.708;2024-03-25T03:38:15;4.80;99.90
11666;DHT22;5889;51.350;6.708;2024-03-25T03:40:41;4.80;99.90
11666;DHT22;5889;51.350;6.708;2024-03-25T03:43:08;4.80;99.90
11666;DHT22;5889;51.350;6.708;2024-03-25T03:45:34;4.90;99.90
11666;DHT22;5889;51.350;6.708;2024-03-25T03:48:01;4.90;99.90
11666;DHT22;5889;51.350;6.708;2024-03-25T03:50:26;4.90;99.90
11666;DHT22;5889;51.350;6.708;2024-03-25T03:52:55;4.90;99.90
11666;DHT22;5889;51.350;6.708;2024-03-25T03:55:20;4.90;99.90
11666;DHT22;5889;51.350;6.708;2024-03-25T03:57:47;5.00;99.90
11666;DHT22;5889;51.350;6.708;2024-03-25T04:00:14;5.00;99.90
11666;DHT22;5889;51.350;6.708;2024-03-25T04:02:41;5.00;99.90
11666;DHT22;5889;51.350;6.708;2024-03-25T04:05:07;5.00;99.90
11666;DHT22;5889;51.350;6.708;2024-03-25T04:07:34;5.00;99.90
11666;DHT22;5889;51.350;6.708;2024-03-25T04:10:01;5.10;99.90
11666;DHT22;5889;51.350;6.708;2024-03-25T04:12:29;5.10;99.90
11666;DHT22;5889;51.350;6.708;2024-03-25T04:14:55;5.10;99.90
11666;DHT22;5889;51.350;6.708;2024-03-25T04:17:22;5.10;99.90
11666;DHT22;5889;51.350;6.708;2024-03-25T04:19:48;5.10;99.90
11666;DHT22;5889;51.350;6.708;2024-03-25T04:22:15;5.10;99.90
11666;DHT22;5889;51.350;6.708;2024-03-25T04:24:42;5.10;99.90
11666;DHT22;5889;51.350;6.708;2024-03-25T04:27:10;5.10;99.90
11666;DHT22;5889;51.350;6.708;2024-03-25T04:29:36;5.10;99.90
11666;DHT22;5889;51.350;6.708;2024-03-25T04:32:03;5.10;99.90
11666;DHT22;5889;51.350;6.708;2024-03-25T04:34:29;5.10;99.90
11666;DHT22;5889;51.350;6.708;2024-03-25T04:36:56;5.10;99.90
11666;DHT22;5889;51.350;6.708;2024-03-25T04:39:22;5.20;99.90
11666;DHT22;5889;51.350;6.708;2024-03-25T04:41:48;5.10;99.90
11666;DHT22;5889;51.350;6.708;2024-03-25T04:44:15;5.20;99.90
11666;DHT22;5889;51.350;6.708;2024-03-25T04:46:41;5.20;99.90
11666;DHT22;5889;51.350;6.708;2024-03-25T04:49:06;5.10;99.90
11666;DHT22;5889;51.350;6.708;2024-03-25T04:51:32;5.20;99.90
11666;DHT22;5889;51.350;6.708;2024-03-25T04:53:58;5.20;99.90
11666;DHT22;5889;51.350;6.708;2024-03-25T04:56:24;5.20;99.90
11666;DHT22;5889;51.350;6.708;2024-03-25T04:58:50;5.20;99.90
11666;DHT22;5889;51.350;6.708;2024-03-25T05:01:17;5.20;99.90
11666;DHT22;5889;51.350;6.708;2024-03-25T05:03:43;5.20;99.90
11666;DHT22;5889;51.350;6.708;2024-03-25T05:06:08;5.20;99.90
11666;DHT22;5889;51.350;6.708;2024-03-25T05:08:34;5.30;99.90
11666;DHT22;5889;51.350;6.708;2024-03-25T05:11:00;5.30;99.90
11666;DHT22;5889;51.350;6.708;2024-03-25T05:13:26;5.30;99.90
11666;DHT22;5889;51.350;6.708;2024-03-25T05:15:52;5.30;99.90
11666;DHT22;5889;51.350;6.708;2024-03-25T05:18:19;5.40;99.90
11666;DHT22;5889;51.350;6.708;2024-03-25T05:20:45;5.40;99.90
11666;DHT22;5889;51.350;6.708;2024-03-25T05:23:11;5.30;99.90
11666;DHT22;5889;51.350;6.708;2024-03-25T05:25:37;5.30;99.90
11666;DHT22;5889;51.350;6.708;2024-03-25T05:28:03;5.40;99.90
11666;DHT22;5889;51.350;6.708;2024-03-25T05:30:29;5.40;99.90
11666;DHT22;5889;51.350;6.708;2024-03-25T05:32:55;5.40;99.90
11666;DHT22;5889;51.350;6.708;2024-03-25T05:35:23;5.40;99.90
11666;DHT22;5889;51.350;6.708;2024-03-25T05:37:49;5.40;99.90
11666;DHT22;5889;51.350;6.708;2024-03-25T05:40:14;5.40;99.90
11666;DHT22;5889;51.350;6.708;2024-03-25T05:42:40;5.40;99.90
11666;DHT22;5889;51.350;6.708;2024-03-25T05:45:07;5.40;99.90
11666;DHT22;5889;51.350;6.708;2024-03-25T05:51:03;5.50;99.90
11666;DHT22;5889;51.350;6.708;2024-03-25T05:53:29;5.50;99.90
11666;DHT22;5889;51.350;6.708;2024-03-25T05:55:55;5.50;99.90
11666;DHT22;5889;51.350;6.708;2024-03-25T05:58:23;5.50;99.90
11666;DHT22;5889;51.350;6.708;2024-03-25T06:00:49;5.60;99.90
11666;DHT22;5889;51.350;6.708;2024-03-25T06:03:15;5.50;99.90
11666;DHT22;5889;51.350;6.708;2024-03-25T06:05:41;5.50;99.90
11666;DHT22;5889;51.350;6.708;2024-03-25T06:08:09;5.50;99.90
11666;DHT22;5889;51.350;6.708;2024-03-25T06:10:36;5.50;99.90
11666;DHT22;5889;51.350;6.708;2024-03-25T06:13:02;5.50;99.90
11666;DHT22;5889;51.350;6.708;2024-03-25T06:15:28;5.60;99.90
11666;DHT22;5889;51.350;6.708;2024-03-25T06:18:00;5.60;99.90
11666;DHT22;5889;51.350;6.708;2024-03-25T06:20:25;5.60;99.90
11666;DHT22;5889;51.350;6.708;2024-03-25T06:23:20;5.70;99.90
11666;DHT22;5889;51.350;6.708;2024-03-25T06:25:57;5.70;99.90
11666;DHT22;5889;51.350;6.708;2024-03-25T06:28:23;5.70;99.90
11666;DHT22;5889;51.350;6.708;2024-03-25T06:30:49;5.70;99.90
11666;DHT22;5889;51.350;6.708;2024-03-25T06:33:34;5.80;99.90
11666;DHT22;5889;51.350;6.708;2024-03-25T06:36:19;5.90;99.90
11666;DHT22;5889;51.350;6.708;2024-03-25T06:38:45;5.80;99.90
11666;DHT22;5889;51.350;6.708;2024-03-25T06:41:13;5.80;99.90
11666;DHT22;5889;51.350;6.708;2024-03-25T06:43:39;5.80;99.90
11666;DHT22;5889;51.350;6.708;2024-03-25T06:46:05;5.80;99.90
11666;DHT22;5889;51.350;6.708;2024-03-25T06:48:31;5.80;99.90
11666;DHT22;5889;51.350;6.708;2024-03-25T06:50:59;5.80;99.90
11666;DHT22;5889;51.350;6.708;2024-03-25T06:53:25;5.80;99.90
11666;DHT22;5889;51.350;6.708;2024-03-25T06:55:52;5.80;99.90
11666;DHT22;5889;51.350;6.708;2024-03-25T06:58:20;5.90;99.90
11666;DHT22;5889;51.350;6.708;2024-03-25T07:00:46;5.90;99.90
11666;DHT22;5889;51.350;6.708;2024-03-25T07:03:12;5.90;99.90
11666;DHT22;5889;51.350;6.708;2024-03-25T07:05:37;5.90;99.90
11666;DHT22;5889;51.350;6.708;2024-03-25T07:08:04;5.90;99.90
11666;DHT22;5889;51.350;6.708;2024-03-25T07:10:30;6.00;99.90
11666;DHT22;5889;51.350;6.708;2024-03-25T07:12:55;6.10;99.90
11666;DHT22;5889;51.350;6.708;2024-03-25T07:15:23;6.10;99.90
11666;DHT22;5889;51.350;6.708;2024-03-25T07:17:48;6.20;99.90
11666;DHT22;5889;51.350;6.708;2024-03-25T07:20:14;6.30;99.90
11666;DHT22;5889;51.350;6.708;2024-03-25T07:22:40;6.50;99.90
11666;DHT22;5889;51.350;6.708;2024-03-25T07:25:07;6.70;99.90
11666;DHT22;5889;51.350;6.708;2024-03-25T07:27:33;6.80;99.90
11666;DHT22;5889;51.350;6.708;2024-03-25T07:29:59;6.90;99.90
11666;DHT22;5889;51.350;6.708;2024-03-25T07:32:26;7.00;99.90
11666;DHT22;5889;51.350;6.708;2024-03-25T07:34:52;7.00;99.90
11666;DHT22;5889;51.350;6.708;2024-03-25T07:37:17;7.00;99.90
11666;DHT22;5889;51.350;6.708;2024-03-25T07:39:46;7.00;99.90
11666;DHT22;5889;51.350;6.708;2024-03-25T07:42:11;7.10;99.90
11666;DHT22;5889;51.350;6.708;2024-03-25T07:44:37;7.10;99.90
11666;DHT22;5889;51.350;6.708;2024-03-25T07:47:03;7.10;99.90
11666;DHT22;5889;51.350;6.708;2024-03-25T07:49:31;7.30;99.90
11666;DHT22;5889;51.350;6.708;2024-03-25T07:52:00;7.30;99.90
11666;DHT22;5889;51.350;6.708;2024-03-25T07:54:26;7.40;99.90
11666;DHT22;5889;51.350;6.708;2024-03-25T07:56:52;7.40;99.90
11666;DHT22;5889;51.350;6.708;2024-03-25T07:59:18;7.50;99.90
11666;DHT22;5889;51.350;6.708;2024-03-25T08:01:44;7.60;99.90
11666;DHT22;5889;51.350;6.708;2024-03-25T08:04:09;7.60;99.90
11666;DHT22;5889;51.350;6.708;2024-03-25T08:06:36;7.80;99.90
11666;DHT22;5889;51.350;6.708;2024-03-25T08:09:02;7.90;99.90
11666;DHT22;5889;51.350;6.708;2024-03-25T08:11:29;8.00;99.90
11666;DHT22;5889;51.350;6.708;2024-03-25T08:13:55;8.00;99.90
11666;DHT22;5889;51.350;6.708;2024-03-25T08:16:21;8.00;99.90
11666;DHT22;5889;51.350;6.708;2024-03-25T08:18:46;8.10;99.90
11666;DHT22;5889;51.350;6.708;2024-03-25T08:21:12;8.10;99.90
11666;DHT22;5889;51.350;6.708;2024-03-25T08:23:39;8.20;99.90
11666;DHT22;5889;51.350;6.708;2024-03-25T08:26:06;8.30;99.90
11666;DHT22;5889;51.350;6.708;2024-03-25T08:28:32;8.40;99.90
11666;DHT22;5889;51.350;6.708;2024-03-25T08:30:58;8.40;99.90
11666;DHT22;5889;51.350;6.708;2024-03-25T08:33:23;8.30;99.90
11666;DHT22;5889;51.350;6.708;2024-03-25T08:35:49;8.40;99.90
11666;DHT22;5889;51.350;6.708;2024-03-25T08:38:15;8.40;99.90
11666;DHT22;5889;51.350;6.708;2024-03-25T08:40:42;8.50;99.90
11666;DHT22;5889;51.350;6.708;2024-03-25T08:43:08;8.70;99.90
11666;DHT22;5889;51.350;6.708;2024-03-25T08:45:34;8.80;99.90
11666;DHT22;5889;51.350;6.708;2024-03-25T08:48:00;8.90;99.90
11666;DHT22;5889;51.350;6.708;2024-03-25T08:50:25;9.10;99.90
11666;DHT22;5889;51.350;6.708;2024-03-25T08:52:51;9.30;99.90
11666;DHT22;5889;51.350;6.708;2024-03-25T08:55:17;9.50;99.90
11666;DHT22;5889;51.350;6.708;2024-03-25T08:57:44;9.70;99.90
11666;DHT22;5889;51.350;6.708;2024-03-25T09:00:11;9.90;99.90
11666;DHT22;5889;51.350;6.708;2024-03-25T09:02:37;10.20;99.90
11666;DHT22;5889;51.350;6.708;2024-03-25T09:05:03;10.40;99.90
11666;DHT22;5889;51.350;6.708;2024-03-25T09:07:30;10.50;99.90
11666;DHT22;5889;51.350;6.708;2024-03-25T09:09:56;10.50;99.90
11666;DHT22;5889;51.350;6.708;2024-03-25T09:12:40;10.60;99.90
11666;DHT22;5889;51.350;6.708;2024-03-25T09:15:07;10.70;99.90
11666;DHT22;5889;51.350;6.708;2024-03-25T09:17:33;10.90;99.90
11666;DHT22;5889;51.350;6.708;2024-03-25T09:19:59;10.90;99.90
11666;DHT22;5889;51.350;6.708;2024-03-25T09:22:25;10.90;99.90
11666;DHT22;5889;51.350;6.708;2024-03-25T09:24:51;11.00;99.90
11666;DHT22;5889;51.350;6.708;2024-03-25T09:27:16;11.10;99.90
11666;DHT22;5889;51.350;6.708;2024-03-25T09:29:42;11.10;99.90
11666;DHT22;5889;51.350;6.708;2024-03-25T09:32:09;11.00;99.90
11666;DHT22;5889;51.350;6.708;2024-03-25T09:34:35;10.90;99.90
11666;DHT22;5889;51.350;6.708;2024-03-25T09:37:01;10.90;99.90
11666;DHT22;5889;51.350;6.708;2024-03-25T09:39:27;11.10;99.90
11666;DHT22;5889;51.350;6.708;2024-03-25T09:41:55;11.40;99.90
11666;DHT22;5889;51.350;6.708;2024-03-25T09:44:22;11.60;99.90
11666;DHT22;5889;51.350;6.708;2024-03-25T09:46:49;11.70;99.90
11666;DHT22;5889;51.350;6.708;2024-03-25T09:49:17;11.70;99.90
11666;DHT22;5889;51.350;6.708;2024-03-25T09:51:43;12.00;99.90
11666;DHT22;5889;51.350;6.708;2024-03-25T09:54:09;12.20;99.90
11666;DHT22;5889;51.350;6.708;2024-03-25T09:56:35;12.30;99.90
11666;DHT22;5889;51.350;6.708;2024-03-25T09:59:02;12.40;99.90
11666;DHT22;5889;51.350;6.708;2024-03-25T10:01:29;12.50;99.90
11666;DHT22;5889;51.350;6.708;2024-03-25T10:06:41;12.90;99.90
11666;DHT22;5889;51.350;6.708;2024-03-25T10:09:06;13.00;99.90
11666;DHT22;5889;51.350;6.708;2024-03-25T10:11:32;13.10;99.90
11666;DHT22;5889;51.350;6.708;2024-03-25T10:13:58;13.20;99.90
11666;DHT22;5889;51.350;6.708;2024-03-25T10:16:24;13.30;99.90
11666;DHT22;5889;51.350;6.708;2024-03-25T10:18:50;13.40;99.90
11666;DHT22;5889;51.350;6.708;2024-03-25T10:21:19;13.40;99.90
11666;DHT22;5889;51.350;6.708;2024-03-25T10:23:47;13.70;99.90
11666;DHT22;5889;51.350;6.708;2024-03-25T10:26:25;13.90;99.90
11666;DHT22;5889;51.350;6.708;2024-03-25T10:28:59;13.80;98.90
11666;DHT22;5889;51.350;6.708;2024-03-25T10:31:25;13.50;99.40
11666;DHT22;5889;51.350;6.708;2024-03-25T10:33:51;13.40;99.90
11666;DHT22;5889;51.350;6.708;2024-03-25T10:36:17;13.60;99.90
11666;DHT22;5889;51.350;6.708;2024-03-25T10:38:44;13.80;99.70
11666;DHT22;5889;51.350;6.708;2024-03-25T10:41:13;13.90;99.80
11666;DHT22;5889;51.350;6.708;2024-03-25T10:43:45;14.00;99.00
11666;DHT22;5889;51.350;6.708;2024-03-25T10:46:12;14.10;98.90
11666;DHT22;5889;51.350;6.708;2024-03-25T10:48:42;14.10;99.20
11666;DHT22;5889;51.350;6.708;2024-03-25T10:51:10;14.20;98.90
11666;DHT22;5889;51.350;6.708;2024-03-25T10:53:37;14.20;98.70
11666;DHT22;5889;51.350;6.708;2024-03-25T10:56:03;14.20;98.60
11666;DHT22;5889;51.350;6.708;2024-03-25T10:58:33;14.30;99.00
11666;DHT22;5889;51.350;6.708;2024-03-25T11:01:00;14.30;98.40
11666;DHT22;5889;51.350;6.708;2024-03-25T11:03:26;14.50;98.10
11666;DHT22;5889;51.350;6.708;2024-03-25T11:05:53;14.50;98.20
11666;DHT22;5889;51.350;6.708;2024-03-25T11:08:19;14.30;97.20
11666;DHT22;5889;51.350;6.708;2024-03-25T11:10:45;14.20;97.50
11666;DHT22;5889;51.350;6.708;2024-03-25T11:13:13;14.10;97.70
11666;DHT22;5889;51.350;6.708;2024-03-25T11:15:42;14.00;97.70
11666;DHT22;5889;51.350;6.708;2024-03-25T11:18:12;13.80;98.00
11666;DHT22;5889;51.350;6.708;2024-03-25T11:20:38;13.80;97.70
11666;DHT22;5889;51.350;6.708;2024-03-25T11:23:09;13.80;98.00
11666;DHT22;5889;51.350;6.708;2024-03-25T11:25:35;13.90;97.70
11666;DHT22;5889;51.350;6.708;2024-03-25T11:28:01;14.10;98.00
11666;DHT22;5889;51.350;6.708;2024-03-25T11:30:27;14.30;97.70
11666;DHT22;5889;51.350;6.708;2024-03-25T11:32:55;14.40;96.60
11666;DHT22;5889;51.350;6.708;2024-03-25T11:35:21;14.40;96.50
11666;DHT22;5889;51.350;6.708;2024-03-25T11:37:47;14.60;96.60
11666;DHT22;5889;51.350;6.708;2024-03-25T11:40:14;14.70;96.90
11666;DHT22;5889;51.350;6.708;2024-03-25T11:42:40;14.90;96.80
11666;DHT22;5889;51.350;6.708;2024-03-25T11:45:07;14.90;96.00
11666;DHT22;5889;51.350;6.708;2024-03-25T11:47:33;14.90;96.10
11666;DHT22;5889;51.350;6.708;2024-03-25T11:50:07;14.80;95.80
11666;DHT22;5889;51.350;6.708;2024-03-25T11:52:33;14.80;95.00
11666;DHT22;5889;51.350;6.708;2024-03-25T11:54:59;14.70;95.40
11666;DHT22;5889;51.350;6.708;2024-03-25T11:57:25;14.70;95.80
11666;DHT22;5889;51.350;6.708;2024-03-25T11:59:51;14.80;95.70
11666;DHT22;5889;51.350;6.708;2024-03-25T12:02:17;14.90;95.00
11666;DHT22;5889;51.350;6.708;2024-03-25T12:04:44;14.90;95.00
11666;DHT22;5889;51.350;6.708;2024-03-25T12:07:12;14.80;95.10
11666;DHT22;5889;51.350;6.708;2024-03-25T12:09:38;14.80;95.30
11666;DHT22;5889;51.350;6.708;2024-03-25T12:12:22;14.90;95.10
11666;DHT22;5889;51.350;6.708;2024-03-25T12:14:48;14.90;94.20
11666;DHT22;5889;51.350;6.708;2024-03-25T12:17:14;14.80;94.00
11666;DHT22;5889;51.350;6.708;2024-03-25T12:19:40;14.70;94.40
11666;DHT22;5889;51.350;6.708;2024-03-25T12:22:07;14.30;93.40
11666;DHT22;5889;51.350;6.708;2024-03-25T12:24:34;14.20;93.80
11666;DHT22;5889;51.350;6.708;2024-03-25T12:27:00;14.20;93.20
11666;DHT22;5889;51.350;6.708;2024-03-25T12:29:26;14.10;93.70
11666;DHT22;5889;51.350;6.708;2024-03-25T12:31:55;14.20;94.60
11666;DHT22;5889;51.350;6.708;2024-03-25T12:34:21;14.30;94.70
11666;DHT22;5889;51.350;6.708;2024-03-25T12:36:48;14.50;94.90
11666;DHT22;5889;51.350;6.708;2024-03-25T12:39:17;14.70;94.80
11666;DHT22;5889;51.350;6.708;2024-03-25T12:41:44;14.70;94.30
11666;DHT22;5889;51.350;6.708;2024-03-25T12:44:12;14.80;94.60
11666;DHT22;5889;51.350;6.708;2024-03-25T12:46:38;14.70;94.90
11666;DHT22;5889;51.350;6.708;2024-03-25T12:49:04;14.70;95.10
11666;DHT22;5889;51.350;6.708;2024-03-25T12:51:30;14.80;94.70
11666;DHT22;5889;51.350;6.708;2024-03-25T12:53:56;14.90;94.80
11666;DHT22;5889;51.350;6.708;2024-03-25T12:56:22;15.00;93.70
11666;DHT22;5889;51.350;6.708;2024-03-25T12:58:49;15.00;93.70
11666;DHT22;5889;51.350;6.708;2024-03-25T13:01:15;14.80;93.40
11666;DHT22;5889;51.350;6.708;2024-03-25T13:03:41;14.80;93.80
11666;DHT22;5889;51.350;6.708;2024-03-25T13:06:07;14.80;93.90
11666;DHT22;5889;51.350;6.708;2024-03-25T13:08:33;15.00;93.90
11666;DHT22;5889;51.350;6.708;2024-03-25T13:10:59;15.00;93.70
11666;DHT22;5889;51.350;6.708;2024-03-25T13:13:25;14.90;93.30
11666;DHT22;5889;51.350;6.708;2024-03-25T13:15:52;14.90;93.30
11666;DHT22;5889;51.350;6.708;2024-03-25T13:18:18;14.70;93.30
11666;DHT22;5889;51.350;6.708;2024-03-25T13:20:45;14.70;93.80
11666;DHT22;5889;51.350;6.708;2024-03-25T13:23:10;14.70;93.00
11666;DHT22;5889;51.350;6.708;2024-03-25T13:25:36;14.80;91.10
11666;DHT22;5889;51.350;6.708;2024-03-25T13:28:03;14.80;91.90
11666;DHT22;5889;51.350;6.708;2024-03-25T13:30:30;14.90;91.90
11666;DHT22;5889;51.350;6.708;2024-03-25T13:32:58;15.00;91.00
11666;DHT22;5889;51.350;6.708;2024-03-25T13:35:24;15.00;91.20
11666;DHT22;5889;51.350;6.708;2024-03-25T13:37:50;15.00;91.20
11666;DHT22;5889;51.350;6.708;2024-03-25T13:40:15;15.00;91.40
11666;DHT22;5889;51.350;6.708;2024-03-25T13:42:41;15.00;91.00
11666;DHT22;5889;51.350;6.708;2024-03-25T13:45:08;15.10;91.10
11666;DHT22;5889;51.350;6.708;2024-03-25T13:47:34;15.10;91.10
11666;DHT22;5889;51.350;6.708;2024-03-25T13:50:02;15.20;91.20
11666;DHT22;5889;51.350;6.708;2024-03-25T13:52:28;15.20;91.00
11666;DHT22;5889;51.350;6.708;2024-03-25T13:54:54;15.10;90.60
11666;DHT22;5889;51.350;6.708;2024-03-25T13:57:20;15.00;90.80
11666;DHT22;5889;51.350;6.708;2024-03-25T13:59:46;15.00;90.30
11666;DHT22;5889;51.350;6.708;2024-03-25T14:02:12;14.80;90.50
11666;DHT22;5889;51.350;6.708;2024-03-25T14:04:38;14.80;90.60
11666;DHT22;5889;51.350;6.708;2024-03-25T14:07:05;14.80;90.20
11666;DHT22;5889;51.350;6.708;2024-03-25T14:09:31;14.80;90.10
11666;DHT22;5889;51.350;6.708;2024-03-25T14:11:56;14.70;90.00
11666;DHT22;5889;51.350;6.708;2024-03-25T14:14:22;14.80;90.60
11666;DHT22;5889;51.350;6.708;2024-03-25T14:16:49;14.90;90.80
11666;DHT22;5889;51.350;6.708;2024-03-25T14:19:15;15.00;90.90
11666;DHT22;5889;51.350;6.708;2024-03-25T14:21:40;15.10;90.70
11666;DHT22;5889;51.350;6.708;2024-03-25T14:24:08;15.10;90.60
11666;DHT22;5889;51.350;6.708;2024-03-25T14:26:34;15.10;89.00
11666;DHT22;5889;51.350;6.708;2024-03-25T14:29:00;15.10;89.60
11666;DHT22;5889;51.350;6.708;2024-03-25T14:31:26;15.10;88.80
11666;DHT22;5889;51.350;6.708;2024-03-25T14:33:51;15.10;90.00
11666;DHT22;5889;51.350;6.708;2024-03-25T14:36:17;15.10;90.30
11666;DHT22;5889;51.350;6.708;2024-03-25T14:38:43;15.20;90.20
11666;DHT22;5889;51.350;6.708;2024-03-25T14:41:12;15.10;87.40
11666;DHT22;5889;51.350;6.708;2024-03-25T14:43:37;15.00;88.10
11666;DHT22;5889;51.350;6.708;2024-03-25T14:46:03;15.00;88.10
11666;DHT22;5889;51.350;6.708;2024-03-25T14:48:29;15.00;85.90
11666;DHT22;5889;51.350;6.708;2024-03-25T14:50:55;15.00;86.80
11666;DHT22;5889;51.350;6.708;2024-03-25T14:53:21;15.00;86.50
11666;DHT22;5889;51.350;6.708;2024-03-25T14:55:47;15.00;84.10
11666;DHT22;5889;51.350;6.708;2024-03-25T14:58:14;15.00;85.20
11666;DHT22;5889;51.350;6.708;2024-03-25T15:00:39;15.10;85.10
11666;DHT22;5889;51.350;6.708;2024-03-25T15:03:05;15.20;85.90
11666;DHT22;5889;51.350;6.708;2024-03-25T15:05:31;15.20;86.00
11666;DHT22;5889;51.350;6.708;2024-03-25T15:07:57;15.30;87.10
11666;DHT22;5889;51.350;6.708;2024-03-25T15:10:23;15.40;86.70
11666;DHT22;5889;51.350;6.708;2024-03-25T15:12:49;15.30;84.70
11666;DHT22;5889;51.350;6.708;2024-03-25T15:15:16;15.20;83.70
11666;DHT22;5889;51.350;6.708;2024-03-25T15:17:42;15.00;83.60
11666;DHT22;5889;51.350;6.708;2024-03-25T15:20:08;15.00;84.60
11666;DHT22;5889;51.350;6.708;2024-03-25T15:22:34;15.00;85.40
11666;DHT22;5889;51.350;6.708;2024-03-25T15:25:00;15.10;84.90
11666;DHT22;5889;51.350;6.708;2024-03-25T15:27:27;15.10;84.40
11666;DHT22;5889;51.350;6.708;2024-03-25T15:29:52;15.20;85.50
11666;DHT22;5889;51.350;6.708;2024-03-25T15:32:19;15.30;84.90
11666;DHT22;5889;51.350;6.708;2024-03-25T15:34:45;15.30;84.30
11666;DHT22;5889;51.350;6.708;2024-03-25T15:37:11;15.30;83.50
11666;DHT22;5889;51.350;6.708;2024-03-25T15:39:37;15.30;84.30
11666;DHT22;5889;51.350;6.708;2024-03-25T15:42:04;15.40;84.30
11666;DHT22;5889;51.350;6.708;2024-03-25T15:44:30;15.50;84.30
11666;DHT22;5889;51.350;6.708;2024-03-25T15:46:55;15.50;84.00
11666;DHT22;5889;51.350;6.708;2024-03-25T15:49:23;15.50;83.00
11666;DHT22;5889;51.350;6.708;2024-03-25T15:51:48;15.50;82.80
11666;DHT22;5889;51.350;6.708;2024-03-25T15:54:14;15.40;82.80
11666;DHT22;5889;51.350;6.708;2024-03-25T15:56:40;15.30;82.20